sensor_id;sensor_type;location;lat;lon;timestamp;temperature;humidity
32334;DHT22;18810;53.040;8.850;2023-03-03T00:01:22;3.90;99.90
32334;DHT22;18810;53.040;8.850;2023-03-03T00:03:50;3.90;99.90
32334;DHT22;18810;53.040;8.850;2023-03-03T00:06:17;3.80;99.90
32334;DHT22;18810;53.040;8.850;2023-03-03T00:08:42;3.80;99.90
32334;DHT22;18810;53.040;8.850;2023-03-03T00:11:09;3.80;99.90
32334;DHT22;18810;53.040;8.850;2023-03-03T00:13:45;3.80;99.90
32334;DHT22;18810;53.040;8.850;2023-03-03T00:16:27;3.80;99.90
32334;DHT22;18810;53.040;8.850;2023-03-03T00:18:53;3.80;99.90
32334;DHT22;18810;53.040;8.850;2023-03-03T00:21:42;3.80;99.90
32334;DHT22;18810;53.040;8.850;2023-03-03T00:24:34;3.80;99.90
32334;DHT22;18810;53.040;8.850;2023-03-03T00:27:27;3.80;99.90
32334;DHT22;18810;53.040;8.850;2023-03-03T00:29:56;3.80;99.90
32334;DHT22;18810;53.040;8.850;2023-03-03T00:32:48;3.70;99.90
32334;DHT22;18810;53.040;8.850;2023-03-03T00:35:27;3.80;99.90
32334;DHT22;18810;53.040;8.850;2023-03-03T00:38:09;3.80;99.90
32334;DHT22;18810;53.040;8.850;2023-03-03T00:40:36;3.80;99.90
32334;DHT22;18810;53.040;8.850;2023-03-03T00:43:22;3.60;99.90
32334;DHT22;18810;53.040;8.850;2023-03-03T00:45:49;3.50;99.90
32334;DHT22;18810;53.040;8.850;2023-03-03T00:48:28;3.40;99.90
32334;DHT22;18810;53.040;8.850;2023-03-03T00:50:59;3.30;99.90
32334;DHT22;18810;53.040;8.850;2023-03-03T00:53:29;3.20;99.90
32334;DHT22;18810;53.040;8.850;2023-03-03T00:55:55;3.30;99.90
32334;DHT22;18810;53.040;8.850;2023-03-03T00:58:22;3.40;99.90
32334;DHT22;18810;53.040;8.850;2023-03-03T01:00:50;3.50;99.90
32334;DHT22;18810;53.040;8.850;2023-03-03T01:03:19;3.50;99.90
32334;DHT22;18810;53.040;8.850;2023-03-03T01:05:46;3.50;99.90
32334;DHT22;18810;53.040;8.850;2023-03-03T01:08:13;3.60;99.90
32334;DHT22;18810;53.040;8.850;2023-03-03T01:10:43;3.70;99.90
32334;DHT22;18810;53.040;8.850;2023-03-03T01:13:09;3.70;99.90
32334;DHT22;18810;53.040;8.850;2023-03-03T01:15:36;3.70;99.90
32334;DHT22;18810;53.040;8.850;2023-03-03T01:18:02;3.70;99.90
32334;DHT22;18810;53.040;8.850;2023-03-03T01:20:28;3.70;99.90
32334;DHT22;18810;53.040;8.850;2023-03-03T01:22:54;3.70;99.90
32334;DHT22;18810;53.040;8.850;2023-03-03T01:25:19;3.70;99.90
32334;DHT22;18810;53.040;8.850;2023-03-03T01:27:45;3.70;99.90
32334;DHT22;18810;53.040;8.850;2023-03-03T01:30:12;3.70;99.90
32334;DHT22;18810;53.040;8.850;2023-03-03T01:32:38;3.70;99.90
32334;DHT22;18810;53.040;8.850;2023-03-03T01:35:05;3.70;99.90
32334;DHT22;18810;53.040;8.850;2023-03-03T01:37:30;3.70;99.90
32334;DHT22;18810;53.040;8.850;2023-03-03T01:39:56;3.70;99.90
32334;DHT22;18810;53.040;8.850;2023-03-03T01:42:22;3.70;99.90
32334;DHT22;18810;53.040;8.850;2023-03-03T01:44:48;3.60;99.90
32334;DHT22;18810;53.040;8.850;2023-03-03T01:47:20;3.60;99.90
32334;DHT22;18810;53.040;8.850;2023-03-03T01:50:03;3.60;99.90
32334;DHT22;18810;53.040;8.850;2023-03-03T01:52:39;3.70;99.90
32334;DHT22;18810;53.040;8.850;2023-03-03T01:55:28;3.70;99.90
32334;DHT22;18810;53.040;8.850;2023-03-03T01:58:01;3.70;99.90
32334;DHT22;18810;53.040;8.850;2023-03-03T02:00:28;3.60;99.90
32334;DHT22;18810;53.040;8.850;2023-03-03T02:02:55;3.70;99.90
32334;DHT22;18810;53.040;8.850;2023-03-03T02:05:21;3.70;99.90
32334;DHT22;18810;53.040;8.850;2023-03-03T02:07:47;3.70;99.90
32334;DHT22;18810;53.040;8.850;2023-03-03T02:10:15;3.70;99.90
32334;DHT22;18810;53.040;8.850;2023-03-03T02:12:55;3.70;99.90
32334;DHT22;18810;53.040;8.850;2023-03-03T02:17:54;3.50;99.90
32334;DHT22;18810;53.040;8.850;2023-03-03T02:28:30;3.20;99.90
32334;DHT22;18810;53.040;8.850;2023-03-03T02:30:58;3.10;99.90
32334;DHT22;18810;53.040;8.850;2023-03-03T02:33:25;3.20;99.90
32334;DHT22;18810;53.040;8.850;2023-03-03T02:35:51;3.20;99.90
32334;DHT22;18810;53.040;8.850;2023-03-03T02:41:32;3.10;99.90
32334;DHT22;18810;53.040;8.850;2023-03-03T02:44:03;3.10;99.90
32334;DHT22;18810;53.040;8.850;2023-03-03T02:46:38;3.40;99.90
32334;DHT22;18810;53.040;8.850;2023-03-03T02:49:05;3.30;99.90
32334;DHT22;18810;53.040;8.850;2023-03-03T02:51:31;3.40;99.90
32334;DHT22;18810;53.040;8.850;2023-03-03T02:53:57;3.50;99.90
32334;DHT22;18810;53.040;8.850;2023-03-03T02:56:23;3.50;99.90
32334;DHT22;18810;53.040;8.850;2023-03-03T02:58:49;3.50;99.90
32334;DHT22;18810;53.040;8.850;2023-03-03T03:01:15;3.40;99.90
32334;DHT22;18810;53.040;8.850;2023-03-03T03:03:40;3.30;99.90
32334;DHT22;18810;53.040;8.850;2023-03-03T03:06:06;3.30;99.90
32334;DHT22;18810;53.040;8.850;2023-03-03T03:08:32;3.30;99.90
32334;DHT22;18810;53.040;8.850;2023-03-03T03:10:58;3.30;99.90
32334;DHT22;18810;53.040;8.850;2023-03-03T03:13:24;3.30;99.90
32334;DHT22;18810;53.040;8.850;2023-03-03T03:15:50;3.30;99.90
32334;DHT22;18810;53.040;8.850;2023-03-03T03:18:16;3.30;99.90
32334;DHT22;18810;53.040;8.850;2023-03-03T03:20:42;3.30;99.90
32334;DHT22;18810;53.040;8.850;2023-03-03T03:23:09;3.20;99.90
32334;DHT22;18810;53.040;8.850;2023-03-03T03:25:34;3.10;99.90
32334;DHT22;18810;53.040;8.850;2023-03-03T03:28:07;3.30;99.90
32334;DHT22;18810;53.040;8.850;2023-03-03T03:30:34;3.20;99.90
32334;DHT22;18810;53.040;8.850;2023-03-03T03:32:59;3.10;99.90
32334;DHT22;18810;53.040;8.850;2023-03-03T03:35:25;3.10;99.90
32334;DHT22;18810;53.040;8.850;2023-03-03T03:37:51;3.20;99.90
32334;DHT22;18810;53.040;8.850;2023-03-03T03:40:16;3.10;99.90
32334;DHT22;18810;53.040;8.850;2023-03-03T03:42:42;2.90;99.90
32334;DHT22;18810;53.040;8.850;2023-03-03T03:45:08;2.80;99.90
32334;DHT22;18810;53.040;8.850;2023-03-03T03:47:34;2.80;99.90
32334;DHT22;18810;53.040;8.850;2023-03-03T03:50:00;3.00;99.90
32334;DHT22;18810;53.040;8.850;2023-03-03T03:52:25;3.00;99.90
32334;DHT22;18810;53.040;8.850;2023-03-03T03:54:51;3.00;99.90
32334;DHT22;18810;53.040;8.850;2023-03-03T03:57:17;3.00;99.90
32334;DHT22;18810;53.040;8.850;2023-03-03T03:59:43;3.00;99.90
32334;DHT22;18810;53.040;8.850;2023-03-03T04:02:08;3.00;99.90
32334;DHT22;18810;53.040;8.850;2023-03-03T04:04:34;3.00;99.90
32334;DHT22;18810;53.040;8.850;2023-03-03T04:07:00;3.00;99.90
32334;DHT22;18810;53.040;8.850;2023-03-03T04:09:26;3.10;99.90
32334;DHT22;18810;53.040;8.850;2023-03-03T04:11:52;3.10;99.90
32334;DHT22;18810;53.040;8.850;2023-03-03T04:14:18;3.00;99.90
32334;DHT22;18810;53.040;8.850;2023-03-03T04:16:44;2.90;99.90
32334;DHT22;18810;53.040;8.850;2023-03-03T04:19:10;2.80;99.90
32334;DHT22;18810;53.040;8.850;2023-03-03T04:21:35;2.90;99.90
32334;DHT22;18810;53.040;8.850;2023-03-03T04:24:01;2.90;99.90
32334;DHT22;18810;53.040;8.850;2023-03-03T04:26:27;3.00;99.90
32334;DHT22;18810;53.040;8.850;2023-03-03T04:28:53;3.00;99.90
32334;DHT22;18810;53.040;8.850;2023-03-03T04:31:18;3.00;99.90
32334;DHT22;18810;53.040;8.850;2023-03-03T04:33:45;3.00;99.90
32334;DHT22;18810;53.040;8.850;2023-03-03T04:36:10;2.90;99.90
32334;DHT22;18810;53.040;8.850;2023-03-03T04:38:36;2.90;99.90
32334;DHT22;18810;53.040;8.850;2023-03-03T04:41:02;2.80;99.90
32334;DHT22;18810;53.040;8.850;2023-03-03T04:43:27;2.80;99.90
32334;DHT22;18810;53.040;8.850;2023-03-03T04:45:53;2.90;99.90
32334;DHT22;18810;53.040;8.850;2023-03-03T04:48:19;2.90;99.90
32334;DHT22;18810;53.040;8.850;2023-03-03T04:50:44;2.90;99.90
32334;DHT22;18810;53.040;8.850;2023-03-03T04:53:10;3.10;99.90
32334;DHT22;18810;53.040;8.850;2023-03-03T04:55:37;3.10;99.90
32334;DHT22;18810;53.040;8.850;2023-03-03T04:58:03;3.20;99.90
32334;DHT22;18810;53.040;8.850;2023-03-03T05:00:29;3.30;99.90
32334;DHT22;18810;53.040;8.850;2023-03-03T05:02:55;3.30;99.90
32334;DHT22;18810;53.040;8.850;2023-03-03T05:05:20;3.40;99.90
32334;DHT22;18810;53.040;8.850;2023-03-03T05:07:46;3.40;99.90
32334;DHT22;18810;53.040;8.850;2023-03-03T05:10:12;3.50;99.90
32334;DHT22;18810;53.040;8.850;2023-03-03T05:12:37;3.50;99.90
32334;DHT22;18810;53.040;8.850;2023-03-03T05:15:04;3.40;99.90
32334;DHT22;18810;53.040;8.850;2023-03-03T05:17:30;3.30;99.90
32334;DHT22;18810;53.040;8.850;2023-03-03T05:19:55;3.10;99.90
32334;DHT22;18810;53.040;8.850;2023-03-03T05:22:22;3.20;99.90
32334;DHT22;18810;53.040;8.850;2023-03-03T05:24:48;3.10;99.90
32334;DHT22;18810;53.040;8.850;2023-03-03T05:27:15;3.20;99.90
32334;DHT22;18810;53.040;8.850;2023-03-03T05:29:41;3.30;99.90
32334;DHT22;18810;53.040;8.850;2023-03-03T05:32:06;3.20;99.90
32334;DHT22;18810;53.040;8.850;2023-03-03T05:34:32;3.10;99.90
32334;DHT22;18810;53.040;8.850;2023-03-03T05:36:58;3.00;99.90
32334;DHT22;18810;53.040;8.850;2023-03-03T05:39:24;2.90;99.90
32334;DHT22;18810;53.040;8.850;2023-03-03T05:41:49;2.80;99.90
32334;DHT22;18810;53.040;8.850;2023-03-03T05:44:15;2.80;99.90
32334;DHT22;18810;53.040;8.850;2023-03-03T05:46:41;2.90;99.90
32334;DHT22;18810;53.040;8.850;2023-03-03T05:49:07;2.80;99.90
32334;DHT22;18810;53.040;8.850;2023-03-03T05:51:33;3.00;99.90
32334;DHT22;18810;53.040;8.850;2023-03-03T05:53:59;3.20;99.90
32334;DHT22;18810;53.040;8.850;2023-03-03T05:56:25;3.30;99.90
32334;DHT22;18810;53.040;8.850;2023-03-03T05:58:50;3.30;99.90
32334;DHT22;18810;53.040;8.850;2023-03-03T06:01:16;3.40;99.90
32334;DHT22;18810;53.040;8.850;2023-03-03T06:03:42;3.50;99.90
32334;DHT22;18810;53.040;8.850;2023-03-03T06:06:07;3.50;99.90
32334;DHT22;18810;53.040;8.850;2023-03-03T06:08:33;3.60;99.90
32334;DHT22;18810;53.040;8.850;2023-03-03T06:10:59;3.50;99.90
32334;DHT22;18810;53.040;8.850;2023-03-03T06:13:25;3.50;99.90
32334;DHT22;18810;53.040;8.850;2023-03-03T06:15:51;3.50;99.90
32334;DHT22;18810;53.040;8.850;2023-03-03T06:18:17;3.40;99.90
32334;DHT22;18810;53.040;8.850;2023-03-03T06:20:43;3.20;99.90
32334;DHT22;18810;53.040;8.850;2023-03-03T06:23:08;3.10;99.90
32334;DHT22;18810;53.040;8.850;2023-03-03T06:25:34;3.30;99.90
32334;DHT22;18810;53.040;8.850;2023-03-03T06:28:02;3.40;99.90
32334;DHT22;18810;53.040;8.850;2023-03-03T06:30:28;3.60;99.90
32334;DHT22;18810;53.040;8.850;2023-03-03T06:32:55;3.50;99.90
32334;DHT22;18810;53.040;8.850;2023-03-03T06:35:20;3.60;99.90
32334;DHT22;18810;53.040;8.850;2023-03-03T06:37:46;3.60;99.90
32334;DHT22;18810;53.040;8.850;2023-03-03T06:40:15;3.50;99.90
32334;DHT22;18810;53.040;8.850;2023-03-03T06:42:41;3.50;99.90
32334;DHT22;18810;53.040;8.850;2023-03-03T06:45:07;3.60;99.90
32334;DHT22;18810;53.040;8.850;2023-03-03T06:47:33;3.70;99.90
32334;DHT22;18810;53.040;8.850;2023-03-03T06:49:59;3.80;99.90
32334;DHT22;18810;53.040;8.850;2023-03-03T06:52:25;3.90;99.90
32334;DHT22;18810;53.040;8.850;2023-03-03T06:54:57;3.90;99.90
32334;DHT22;18810;53.040;8.850;2023-03-03T06:57:31;3.80;99.90
32334;DHT22;18810;53.040;8.850;2023-03-03T07:00:25;3.80;99.90
32334;DHT22;18810;53.040;8.850;2023-03-03T07:03:18;3.90;99.90
32334;DHT22;18810;53.040;8.850;2023-03-03T07:05:46;3.80;99.90
32334;DHT22;18810;53.040;8.850;2023-03-03T07:08:17;3.90;99.90
32334;DHT22;18810;53.040;8.850;2023-03-03T07:10:44;3.80;99.90
32334;DHT22;18810;53.040;8.850;2023-03-03T07:13:25;3.60;99.90
32334;DHT22;18810;53.040;8.850;2023-03-03T07:15:56;3.60;99.90
32334;DHT22;18810;53.040;8.850;2023-03-03T07:20:59;3.70;99.90
32334;DHT22;18810;53.040;8.850;2023-03-03T07:23:27;3.80;99.90
32334;DHT22;18810;53.040;8.850;2023-03-03T07:25:55;3.90;99.90
32334;DHT22;18810;53.040;8.850;2023-03-03T07:30:47;4.20;99.90
32334;DHT22;18810;53.040;8.850;2023-03-03T07:35:57;4.20;99.90
32334;DHT22;18810;53.040;8.850;2023-03-03T07:38:39;4.30;99.90
32334;DHT22;18810;53.040;8.850;2023-03-03T07:41:16;4.50;99.90
32334;DHT22;18810;53.040;8.850;2023-03-03T07:44:34;4.60;99.90
32334;DHT22;18810;53.040;8.850;2023-03-03T07:46:46;4.60;99.90
32334;DHT22;18810;53.040;8.850;2023-03-03T07:49:34;4.40;99.90
32334;DHT22;18810;53.040;8.850;2023-03-03T07:52:15;4.40;99.90
32334;DHT22;18810;53.040;8.850;2023-03-03T07:54:44;4.50;99.90
32334;DHT22;18810;53.040;8.850;2023-03-03T07:59:50;4.50;99.90
32334;DHT22;18810;53.040;8.850;2023-03-03T08:02:39;4.40;99.90
32334;DHT22;18810;53.040;8.850;2023-03-03T08:08:18;4.50;99.90
32334;DHT22;18810;53.040;8.850;2023-03-03T08:10:54;4.60;99.90
32334;DHT22;18810;53.040;8.850;2023-03-03T08:13:21;4.70;99.90
32334;DHT22;18810;53.040;8.850;2023-03-03T08:23:38;4.90;99.90
32334;DHT22;18810;53.040;8.850;2023-03-03T08:26:04;5.10;99.90
32334;DHT22;18810;53.040;8.850;2023-03-03T08:28:30;5.40;99.90
32334;DHT22;18810;53.040;8.850;2023-03-03T08:30:56;5.60;99.90
32334;DHT22;18810;53.040;8.850;2023-03-03T08:33:21;5.80;99.90
32334;DHT22;18810;53.040;8.850;2023-03-03T08:35:47;6.10;99.90
32334;DHT22;18810;53.040;8.850;2023-03-03T08:38:16;6.20;99.90
32334;DHT22;18810;53.040;8.850;2023-03-03T08:40:42;6.30;99.90
32334;DHT22;18810;53.040;8.850;2023-03-03T08:43:09;6.50;99.90
32334;DHT22;18810;53.040;8.850;2023-03-03T08:45:36;6.70;99.90
32334;DHT22;18810;53.040;8.850;2023-03-03T08:48:01;6.80;99.90
32334;DHT22;18810;53.040;8.850;2023-03-03T08:50:28;6.60;99.90
32334;DHT22;18810;53.040;8.850;2023-03-03T08:52:54;6.70;99.90
32334;DHT22;18810;53.040;8.850;2023-03-03T08:55:20;6.60;99.90
32334;DHT22;18810;53.040;8.850;2023-03-03T08:57:46;6.80;99.90
32334;DHT22;18810;53.040;8.850;2023-03-03T09:00:15;6.80;99.90
32334;DHT22;18810;53.040;8.850;2023-03-03T09:02:41;6.80;99.90
32334;DHT22;18810;53.040;8.850;2023-03-03T09:05:07;6.80;99.90
32334;DHT22;18810;53.040;8.850;2023-03-03T09:07:33;6.90;99.90
32334;DHT22;18810;53.040;8.850;2023-03-03T09:09:59;7.10;99.90
32334;DHT22;18810;53.040;8.850;2023-03-03T09:12:32;7.30;99.90
32334;DHT22;18810;53.040;8.850;2023-03-03T09:15:27;7.50;99.90
32334;DHT22;18810;53.040;8.850;2023-03-03T09:17:58;7.60;99.90
32334;DHT22;18810;53.040;8.850;2023-03-03T09:22:49;7.80;99.90
32334;DHT22;18810;53.040;8.850;2023-03-03T09:27:52;8.10;99.90
32334;DHT22;18810;53.040;8.850;2023-03-03T09:32:50;8.20;99.90
32334;DHT22;18810;53.040;8.850;2023-03-03T09:35:33;8.10;99.90
32334;DHT22;18810;53.040;8.850;2023-03-03T09:54:00;7.70;99.90
32334;DHT22;18810;53.040;8.850;2023-03-03T09:56:36;8.10;99.90
32334;DHT22;18810;53.040;8.850;2023-03-03T10:12:39;9.00;99.90
32334;DHT22;18810;53.040;8.850;2023-03-03T10:26:37;9.00;99.90
32334;DHT22;18810;53.040;8.850;2023-03-03T10:37:11;9.90;99.90
32334;DHT22;18810;53.040;8.850;2023-03-03T10:40:14;10.20;99.90
32334;DHT22;18810;53.040;8.850;2023-03-03T10:53:58;8.90;99.90
32334;DHT22;18810;53.040;8.850;2023-03-03T10:56:54;8.90;99.90
32334;DHT22;18810;53.040;8.850;2023-03-03T11:02:39;8.90;99.90
32334;DHT22;18810;53.040;8.850;2023-03-03T11:08:03;9.30;99.90
32334;DHT22;18810;53.040;8.850;2023-03-03T11:16:28;9.60;99.90
32334;DHT22;18810;53.040;8.850;2023-03-03T11:19:35;10.40;99.90
32334;DHT22;18810;53.040;8.850;2023-03-03T11:22:25;10.40;99.90
32334;DHT22;18810;53.040;8.850;2023-03-03T11:28:06;11.30;99.90
32334;DHT22;18810;53.040;8.850;2023-03-03T11:33:38;10.50;99.90
32334;DHT22;18810;53.040;8.850;2023-03-03T11:47:21;12.80;99.90
32334;DHT22;18810;53.040;8.850;2023-03-03T12:00:47;9.90;99.90
32334;DHT22;18810;53.040;8.850;2023-03-03T12:16:44;9.40;99.90
32334;DHT22;18810;53.040;8.850;2023-03-03T12:19:24;9.50;99.90
32334;DHT22;18810;53.040;8.850;2023-03-03T12:24:50;9.90;99.90
32334;DHT22;18810;53.040;8.850;2023-03-03T12:30:32;9.80;99.90
32334;DHT22;18810;53.040;8.850;2023-03-03T12:42:11;9.30;99.90
32334;DHT22;18810;53.040;8.850;2023-03-03T12:44:43;9.00;99.90
32334;DHT22;18810;53.040;8.850;2023-03-03T12:50:32;9.00;99.90
32334;DHT22;18810;53.040;8.850;2023-03-03T12:52:42;9.10;99.90
32334;DHT22;18810;53.040;8.850;2023-03-03T13:01:01;9.00;99.90
32334;DHT22;18810;53.040;8.850;2023-03-03T13:03:58;9.10;99.90
32334;DHT22;18810;53.040;8.850;2023-03-03T13:06:51;9.20;99.90
32334;DHT22;18810;53.040;8.850;2023-03-03T13:17:35;9.30;99.90
32334;DHT22;18810;53.040;8.850;2023-03-03T13:20:16;9.40;99.90
32334;DHT22;18810;53.040;8.850;2023-03-03T13:25:55;9.60;99.90
32334;DHT22;18810;53.040;8.850;2023-03-03T13:31:36;9.20;99.90
32334;DHT22;18810;53.040;8.850;2023-03-03T13:34:02;9.00;99.90
32334;DHT22;18810;53.040;8.850;2023-03-03T13:39:59;8.80;99.90
32334;DHT22;18810;53.040;8.850;2023-03-03T13:42:50;8.50;99.90
32334;DHT22;18810;53.040;8.850;2023-03-03T13:45:29;8.50;99.90
32334;DHT22;18810;53.040;8.850;2023-03-03T13:50:58;8.70;99.90
32334;DHT22;18810;53.040;8.850;2023-03-03T13:53:41;9.10;99.90
32334;DHT22;18810;53.040;8.850;2023-03-03T13:56:28;9.30;99.90
32334;DHT22;18810;53.040;8.850;2023-03-03T14:04:53;9.10;99.90
32334;DHT22;18810;53.040;8.850;2023-03-03T14:07:41;9.20;99.90
32334;DHT22;18810;53.040;8.850;2023-03-03T14:10:20;9.30;99.90
32334;DHT22;18810;53.040;8.850;2023-03-03T14:13:04;9.30;99.90
32334;DHT22;18810;53.040;8.850;2023-03-03T14:18:44;9.10;99.90
32334;DHT22;18810;53.040;8.850;2023-03-03T14:21:45;8.90;99.90
32334;DHT22;18810;53.040;8.850;2023-03-03T14:24:20;8.70;99.90
32334;DHT22;18810;53.040;8.850;2023-03-03T14:26:56;8.70;99.90
32334;DHT22;18810;53.040;8.850;2023-03-03T14:31:55;8.60;99.90
32334;DHT22;18810;53.040;8.850;2023-03-03T14:34:25;8.60;99.90
32334;DHT22;18810;53.040;8.850;2023-03-03T14:37:09;8.70;99.90
32334;DHT22;18810;53.040;8.850;2023-03-03T14:39:44;8.70;99.90
32334;DHT22;18810;53.040;8.850;2023-03-03T14:42:37;8.90;99.90
32334;DHT22;18810;53.040;8.850;2023-03-03T14:45:33;8.70;99.90
32334;DHT22;18810;53.040;8.850;2023-03-03T14:48:22;8.70;99.90
32334;DHT22;18810;53.040;8.850;2023-03-03T14:50:59;8.70;99.90
32334;DHT22;18810;53.040;8.850;2023-03-03T14:53:44;8.70;99.90
32334;DHT22;18810;53.040;8.850;2023-03-03T14:56:22;8.30;99.90
32334;DHT22;18810;53.040;8.850;2023-03-03T14:58:50;8.40;99.90
32334;DHT22;18810;53.040;8.850;2023-03-03T15:01:33;8.40;99.90
32334;DHT22;18810;53.040;8.850;2023-03-03T15:04:02;8.30;99.90
32334;DHT22;18810;53.040;8.850;2023-03-03T15:06:29;8.30;99.90
32334;DHT22;18810;53.040;8.850;2023-03-03T15:08:55;8.10;99.90
32334;DHT22;18810;53.040;8.850;2023-03-03T15:11:32;7.90;99.90
32334;DHT22;18810;53.040;8.850;2023-03-03T15:14:12;7.90;99.90
32334;DHT22;18810;53.040;8.850;2023-03-03T15:16:39;8.20;99.90
32334;DHT22;18810;53.040;8.850;2023-03-03T15:19:41;7.90;99.90
32334;DHT22;18810;53.040;8.850;2023-03-03T15:22:19;8.00;99.90
32334;DHT22;18810;53.040;8.850;2023-03-03T15:25:00;8.00;99.90
32334;DHT22;18810;53.040;8.850;2023-03-03T15:27:37;8.00;99.90
32334;DHT22;18810;53.040;8.850;2023-03-03T15:30:18;7.90;99.90
32334;DHT22;18810;53.040;8.850;2023-03-03T15:39:22;7.70;99.90
32334;DHT22;18810;53.040;8.850;2023-03-03T15:41:42;7.80;99.90
32334;DHT22;18810;53.040;8.850;2023-03-03T15:44:52;8.00;99.90
32334;DHT22;18810;53.040;8.850;2023-03-03T15:53:05;8.00;99.90
32334;DHT22;18810;53.040;8.850;2023-03-03T15:55:49;8.10;99.90
32334;DHT22;18810;53.040;8.850;2023-03-03T16:03:45;7.80;99.90
32334;DHT22;18810;53.040;8.850;2023-03-03T16:17:22;7.60;99.90
32334;DHT22;18810;53.040;8.850;2023-03-03T16:20:19;7.80;99.90
32334;DHT22;18810;53.040;8.850;2023-03-03T16:33:13;7.80;99.90
32334;DHT22;18810;53.040;8.850;2023-03-03T16:38:40;7.80;99.90
32334;DHT22;18810;53.040;8.850;2023-03-03T16:52:47;7.40;99.90
32334;DHT22;18810;53.040;8.850;2023-03-03T16:55:19;7.30;99.90
32334;DHT22;18810;53.040;8.850;2023-03-03T17:11:53;7.20;99.90
32334;DHT22;18810;53.040;8.850;2023-03-03T17:31:45;7.30;99.90
32334;DHT22;18810;53.040;8.850;2023-03-03T17:37:02;7.30;99.90
32334;DHT22;18810;53.040;8.850;2023-03-03T18:01:09;6.70;99.90
32334;DHT22;18810;53.040;8.850;2023-03-03T18:22:32;6.70;99.90
32334;DHT22;18810;53.040;8.850;2023-03-03T18:25:08;6.70;99.90
32334;DHT22;18810;53.040;8.850;2023-03-03T18:27:38;6.80;99.90
32334;DHT22;18810;53.040;8.850;2023-03-03T18:40:58;6.70;99.90
32334;DHT22;18810;53.040;8.850;2023-03-03T18:49:10;6.60;99.90
32334;DHT22;18810;53.040;8.850;2023-03-03T19:04:42;6.50;99.90
32334;DHT22;18810;53.040;8.850;2023-03-03T19:10:01;6.40;99.90
32334;DHT22;18810;53.040;8.850;2023-03-03T19:12:55;6.40;99.90
32334;DHT22;18810;53.040;8.850;2023-03-03T19:39:51;6.50;99.90
32334;DHT22;18810;53.040;8.850;2023-03-03T19:42:33;6.50;99.90
32334;DHT22;18810;53.040;8.850;2023-03-03T19:47:45;6.60;99.90
32334;DHT22;18810;53.040;8.850;2023-03-03T19:58:27;6.50;99.90
32334;DHT22;18810;53.040;8.850;2023-03-03T20:01:13;6.50;99.90
32334;DHT22;18810;53.040;8.850;2023-03-03T20:09:44;6.30;99.90
32334;DHT22;18810;53.040;8.850;2023-03-03T20:12:41;6.30;99.90
32334;DHT22;18810;53.040;8.850;2023-03-03T20:15:16;6.40;99.90
32334;DHT22;18810;53.040;8.850;2023-03-03T20:20:55;6.30;99.90
32334;DHT22;18810;53.040;8.850;2023-03-03T20:43:46;6.30;99.90
32334;DHT22;18810;53.040;8.850;2023-03-03T20:46:32;6.40;99.90
32334;DHT22;18810;53.040;8.850;2023-03-03T20:54:23;6.40;99.90
32334;DHT22;18810;53.040;8.850;2023-03-03T21:04:43;6.20;99.90
32334;DHT22;18810;53.040;8.850;2023-03-03T21:07:25;6.30;99.90
32334;DHT22;18810;53.040;8.850;2023-03-03T21:10:15;6.40;99.90
32334;DHT22;18810;53.040;8.850;2023-03-03T21:12:55;6.40;99.90
32334;DHT22;18810;53.040;8.850;2023-03-03T21:15:30;6.40;99.90
32334;DHT22;18810;53.040;8.850;2023-03-03T21:17:57;6.20;99.90
32334;DHT22;18810;53.040;8.850;2023-03-03T21:22:55;6.30;99.90
32334;DHT22;18810;53.040;8.850;2023-03-03T21:34:16;6.40;99.90
32334;DHT22;18810;53.040;8.850;2023-03-03T21:39:30;6.30;99.90
32334;DHT22;18810;53.040;8.850;2023-03-03T21:44:46;6.20;99.90
32334;DHT22;18810;53.040;8.850;2023-03-03T21:47:26;6.20;99.90
32334;DHT22;18810;53.040;8.850;2023-03-03T21:49:52;6.10;99.90
32334;DHT22;18810;53.040;8.850;2023-03-03T21:52:20;6.20;99.90
32334;DHT22;18810;53.040;8.850;2023-03-03T21:54:47;6.10;99.90
32334;DHT22;18810;53.040;8.850;2023-03-03T21:57:13;6.20;99.90
32334;DHT22;18810;53.040;8.850;2023-03-03T21:59:40;6.30;99.90
32334;DHT22;18810;53.040;8.850;2023-03-03T22:02:06;6.40;99.90
32334;DHT22;18810;53.040;8.850;2023-03-03T22:04:32;6.30;99.90
32334;DHT22;18810;53.040;8.850;2023-03-03T22:06:59;6.30;99.90
32334;DHT22;18810;53.040;8.850;2023-03-03T22:09:25;6.20;99.90
32334;DHT22;18810;53.040;8.850;2023-03-03T22:11:51;6.20;99.90
32334;DHT22;18810;53.040;8.850;2023-03-03T22:14:16;6.20;99.90
32334;DHT22;18810;53.040;8.850;2023-03-03T22:16:42;6.20;99.90
32334;DHT22;18810;53.040;8.850;2023-03-03T22:19:08;6.20;99.90
32334;DHT22;18810;53.040;8.850;2023-03-03T22:21:35;6.20;99.90
32334;DHT22;18810;53.040;8.850;2023-03-03T22:24:01;6.20;99.90
32334;DHT22;18810;53.040;8.850;2023-03-03T22:26:26;6.20;99.90
32334;DHT22;18810;53.040;8.850;2023-03-03T22:28:52;6.10;99.90
32334;DHT22;18810;53.040;8.850;2023-03-03T22:31:18;6.20;99.90
32334;DHT22;18810;53.040;8.850;2023-03-03T22:33:45;6.20;99.90
32334;DHT22;18810;53.040;8.850;2023-03-03T22:36:11;6.20;99.90
32334;DHT22;18810;53.040;8.850;2023-03-03T22:38:37;6.20;99.90
32334;DHT22;18810;53.040;8.850;2023-03-03T22:41:04;6.20;99.90
32334;DHT22;18810;53.040;8.850;2023-03-03T22:43:29;6.20;99.90
32334;DHT22;18810;53.040;8.850;2023-03-03T22:45:56;6.10;99.90
32334;DHT22;18810;53.040;8.850;2023-03-03T22:48:22;6.10;99.90
32334;DHT22;18810;53.040;8.850;2023-03-03T22:50:50;6.10;99.90
32334;DHT22;18810;53.040;8.850;2023-03-03T22:53:16;6.10;99.90
32334;DHT22;18810;53.040;8.850;2023-03-03T22:55:42;6.10;99.90
32334;DHT22;18810;53.040;8.850;2023-03-03T22:58:08;6.20;99.90
32334;DHT22;18810;53.040;8.850;2023-03-03T23:00:35;6.30;99.90
32334;DHT22;18810;53.040;8.850;2023-03-03T23:03:13;6.30;99.90
32334;DHT22;18810;53.040;8.850;2023-03-03T23:05:42;6.30;99.90
32334;DHT22;18810;53.040;8.850;2023-03-03T23:08:28;6.20;99.90
32334;DHT22;18810;53.040;8.850;2023-03-03T23:10:53;6.10;99.90
32334;DHT22;18810;53.040;8.850;2023-03-03T23:13:19;6.10;99.90
32334;DHT22;18810;53.040;8.850;2023-03-03T23:15:45;6.10;99.90
32334;DHT22;18810;53.040;8.850;2023-03-03T23:18:10;6.10;99.90
32334;DHT22;18810;53.040;8.850;2023-03-03T23:20:36;6.20;99.90
32334;DHT22;18810;53.040;8.850;2023-03-03T23:23:02;6.20;99.90
32334;DHT22;18810;53.040;8.850;2023-03-03T23:25:29;6.10;99.90
32334;DHT22;18810;53.040;8.850;2023-03-03T23:27:55;6.20;99.90
32334;DHT22;18810;53.040;8.850;2023-03-03T23:30:21;6.20;99.90
32334;DHT22;18810;53.040;8.850;2023-03-03T23:32:47;6.20;99.90
32334;DHT22;18810;53.040;8.850;2023-03-03T23:35:14;6.20;99.90
32334;DHT22;18810;53.040;8.850;2023-03-03T23:37:40;6.20;99.90
32334;DHT22;18810;53.040;8.850;2023-03-03T23:40:07;6.20;99.90
32334;DHT22;18810;53.040;8.850;2023-03-03T23:42:33;6.20;99.90
32334;DHT22;18810;53.040;8.850;2023-03-03T23:44:58;6.10;99.90
32334;DHT22;18810;53.040;8.850;2023-03-03T23:47:24;6.10;99.90
32334;DHT22;18810;53.040;8.850;2023-03-03T23:49:50;6.20;99.90
32334;DHT22;18810;53.040;8.850;2023-03-03T23:52:16;6.10;99.90
32334;DHT22;18810;53.040;8.850;2023-03-03T23:54:43;6.10;99.90
32334;DHT22;18810;53.040;8.850;2023-03-03T23:57:09;6.20;99.90